Time;durP1;ratioP1;P1;durP2;ratioP2;P2;SDS_P1;SDS_P2;PMS_P1;PMS_P2;Temp;Humidity;BMP_temperature;BMP_pressure;BME280_temperature;BME280_humidity;BME280_pressure;Samples;Min_cycle;Max_cycle;Signal;HPM_P1;HPM_P2
2021/11/06 00:01:22;;;;;;;15.55;8.10;;;;;;;2.92;75.55;100713.03;4974557;28;20105;-63
2021/11/06 00:03:53;;;;;;;16.48;8.70;;;;;;;2.95;76.25;100708.13;4974565;28;20047;-63
2021/11/06 00:06:27;;;;;;;15.15;8.55;;;;;;;2.92;75.53;100705.47;4974600;28;20051;-63
2021/11/06 00:09:00;;;;;;;15.65;8.60;;;;;;;2.93;76.00;100705.53;4974603;28;20203;-63
2021/11/06 00:11:32;;;;;;;17.52;9.07;;;;;;;3.15;76.50;100712.41;4974481;28;20081;-63
2021/11/06 00:14:05;;;;;;;13.95;8.60;;;;;;;3.11;75.95;100715.59;4974545;28;20054;-63
2021/11/06 00:16:37;;;;;;;17.40;8.68;;;;;;;3.06;76.66;100717.91;4974730;28;20547;-63
2021/11/06 00:19:08;;;;;;;18.38;9.52;;;;;;;3.21;76.65;100716.09;4974941;28;20556;-63
2021/11/06 00:21:41;;;;;;;14.65;7.57;;;;;;;3.16;76.25;100720.06;4978196;28;20054;-62
2021/11/06 00:24:13;;;;;;;17.90;9.60;;;;;;;3.14;76.18;100725.84;4978256;28;20183;-63
2021/11/06 00:26:42;;;;;;;16.67;9.13;;;;;;;3.16;75.37;100719.19;4978199;28;20047;-61
2021/11/06 00:29:12;;;;;;;17.48;9.30;;;;;;;3.12;76.01;100737.50;4467035;23;20054;-61
2021/11/06 00:31:42;;;;;;;17.13;8.95;;;;;;;3.18;75.82;100733.59;5016806;28;20065;-60
2021/11/06 00:34:13;;;;;;;18.38;8.80;;;;;;;3.25;75.56;100733.09;5017681;28;20465;-60
2021/11/06 00:36:45;;;;;;;21.05;9.02;;;;;;;3.22;75.49;100730.41;5017282;28;20483;-61
2021/11/06 00:39:14;;;;;;;18.65;9.30;;;;;;;3.35;75.02;100731.84;5016747;28;20054;-60
2021/11/06 00:41:44;;;;;;;19.73;8.80;;;;;;;3.17;74.86;100746.13;5016823;28;20120;-60
2021/11/06 00:44:13;;;;;;;18.02;9.35;;;;;;;2.99;75.18;100746.16;5016549;28;20038;-60
2021/11/06 00:46:46;;;;;;;15.77;8.65;;;;;;;2.99;74.90;100740.25;5016885;28;20137;-61
2021/11/06 00:49:23;;;;;;;16.63;8.07;;;;;;;2.85;75.84;100738.75;5016857;28;20049;-60
2021/11/06 00:51:53;;;;;;;16.52;9.38;;;;;;;2.85;75.19;100743.78;5016699;28;20046;-60
2021/11/06 00:54:23;;;;;;;16.55;8.73;;;;;;;2.79;76.23;100743.50;5016662;28;20117;-60
2021/11/06 00:56:54;;;;;;;;;;;;;;;2.65;75.76;100730.25;5017151;28;20511;-60
2021/11/06 00:59:24;;;;;;;15.52;8.43;;;;;;;2.67;76.27;100733.69;5016270;28;20371;-60
2021/11/06 01:01:57;;;;;;;15.80;7.50;;;;;;;2.69;76.25;100739.66;5016618;28;20066;-61
2021/11/06 01:04:28;;;;;;;14.52;7.22;;;;;;;2.70;76.39;100742.28;5016785;28;20108;-61
2021/11/06 01:07:01;;;;;;;14.50;7.93;;;;;;;2.84;76.19;100749.63;5016788;28;20108;-60
2021/11/06 01:09:33;;;;;;;15.00;7.93;;;;;;;2.89;76.40;100745.66;5016068;28;20100;-60
2021/11/06 01:12:08;;;;;;;16.25;8.05;;;;;;;2.83;75.63;100742.88;5016368;28;20042;-60
2021/11/06 01:14:38;;;;;;;14.73;7.45;;;;;;;2.68;75.72;100745.53;5016387;28;20136;-60
2021/11/06 01:17:08;;;;;;;16.33;8.50;;;;;;;2.73;75.55;100749.13;5016832;28;20120;-60
2021/11/06 01:19:38;;;;;;;16.45;7.95;;;;;;;2.73;76.34;100747.44;5016274;28;20041;-60
2021/11/06 01:22:11;;;;;;;14.25;7.50;;;;;;;2.88;76.61;100756.56;5016202;28;20157;-60
2021/11/06 01:24:41;;;;;;;18.02;8.90;;;;;;;2.91;76.15;100764.22;5016734;28;20050;-61
2021/11/06 01:27:11;;;;;;;15.10;7.70;;;;;;;2.92;76.61;100765.97;5016162;28;20050;-60
2021/11/06 01:29:40;;;;;;;12.07;7.30;;;;;;;2.93;75.66;100760.16;5015253;28;20132;-60
2021/11/06 01:32:13;;;;;;;14.07;7.40;;;;;;;2.93;76.10;100761.00;5015939;28;20551;-60
2021/11/06 01:34:43;;;;;;;13.27;8.10;;;;;;;2.70;76.11;100757.41;5016203;28;20076;-61
2021/11/06 01:37:13;;;;;;;14.27;7.30;;;;;;;2.73;76.41;100762.56;5016192;28;20510;-61
2021/11/06 01:39:45;;;;;;;14.75;7.80;;;;;;;2.61;75.87;100759.50;5016182;28;20157;-60
2021/11/06 01:42:18;;;;;;;16.65;8.00;;;;;;;2.56;76.54;100755.88;5015843;28;20111;-60
2021/11/06 01:44:50;;;;;;;18.02;8.70;;;;;;;2.70;77.01;100764.09;5015835;28;20046;-61
2021/11/06 01:47:23;;;;;;;16.08;8.15;;;;;;;2.77;76.51;100762.72;5016024;28;20398;-60
2021/11/06 01:49:58;;;;;;;16.88;7.80;;;;;;;2.65;76.07;100763.88;5015708;28;20050;-61
2021/11/06 01:52:28;;;;;;;15.85;7.80;;;;;;;2.66;76.51;100765.59;5015885;28;20053;-60
2021/11/06 01:55:00;;;;;;;12.52;7.80;;;;;;;2.46;76.91;100770.47;5015590;28;20041;-61
2021/11/06 01:57:34;;;;;;;16.63;8.23;;;;;;;2.52;76.99;100770.78;5015633;28;20030;-60
2021/11/06 02:00:09;;;;;;;13.63;7.75;;;;;;;2.53;76.30;100773.38;5015807;28;20391;-60
2021/11/06 02:02:41;;;;;;;14.85;7.50;;;;;;;2.25;76.01;100749.28;5015775;28;20077;-60
2021/11/06 02:05:15;;;;;;;16.60;8.45;;;;;;;2.38;76.20;100770.09;5015409;28;20056;-60
2021/11/06 02:07:47;;;;;;;16.52;7.80;;;;;;;2.37;76.60;100773.41;5015378;28;20057;-60
2021/11/06 02:10:20;;;;;;;15.25;8.40;;;;;;;2.41;76.97;100775.28;5015335;28;20052;-60
2021/11/06 02:12:50;;;;;;;16.20;8.32;;;;;;;2.51;76.99;100774.94;5015558;28;20049;-60
2021/11/06 02:15:19;;;;;;;;;;;;;;;2.57;77.29;100785.31;5015625;28;20042;-61
2021/11/06 02:17:50;;;;;;;15.95;7.57;;;;;;;2.69;77.08;100780.00;5015124;28;19925;-61
2021/11/06 02:20:24;;;;;;;17.00;7.85;;;;;;;2.70;76.69;100777.56;5015160;28;20096;-61
2021/11/06 02:22:55;;;;;;;18.13;7.80;;;;;;;2.51;76.50;100780.00;5015071;28;20130;-60
2021/11/06 02:25:26;;;;;;;14.68;8.02;;;;;;;2.43;76.37;100780.38;5015051;28;20072;-61
2021/11/06 02:28:18;;;;;;;15.73;7.57;;;;;;;2.33;75.91;100780.72;5015014;28;20093;-60
2021/11/06 02:30:51;;;;;;;15.80;7.63;;;;;;;2.31;76.59;100785.69;5014191;28;20125;-60
2021/11/06 02:33:20;;;;;;;13.48;7.28;;;;;;;2.17;76.34;100776.59;5015653;28;20046;-60
2021/11/06 02:35:53;;;;;;;13.93;7.35;;;;;;;2.26;76.43;100784.59;5014835;28;20100;-61
2021/11/06 02:38:30;;;;;;;15.23;7.88;;;;;;;2.30;77.23;100773.91;5015431;28;20140;-60
2021/11/06 02:41:00;;;;;;;12.77;7.13;;;;;;;2.27;76.60;100778.78;5014771;28;20491;-61
2021/11/06 02:43:30;;;;;;;14.60;7.35;;;;;;;2.32;76.87;100777.34;5014201;28;20052;-60
2021/11/06 02:45:59;;;;;;;11.00;6.00;;;;;;;2.25;76.69;100775.31;5014599;28;20053;-60
2021/11/06 02:48:28;;;;;;;16.77;8.05;;;;;;;2.18;76.38;100778.34;5014611;28;20050;-61
2021/11/06 02:51:01;;;;;;;11.98;7.50;;;;;;;2.12;76.52;100779.66;5014587;28;20053;-60
2021/11/06 02:53:32;;;;;;;15.60;7.88;;;;;;;2.27;76.46;100778.78;5014790;28;20403;-61
2021/11/06 02:56:01;;;;;;;15.25;7.10;;;;;;;2.11;76.08;100785.50;5014787;28;20404;-60
2021/11/06 02:58:34;;;;;;;13.85;7.28;;;;;;;2.11;77.06;100786.38;5014669;28;20509;-61
2021/11/06 03:01:07;;;;;;;13.90;7.55;;;;;;;2.15;76.63;100789.88;5014734;28;20084;-61
2021/11/06 03:03:36;;;;;;;16.95;7.82;;;;;;;2.17;76.85;100806.81;5014349;28;20045;-60
2021/11/06 03:06:11;;;;;;;13.90;7.28;;;;;;;2.12;76.18;100808.22;5014647;28;20403;-60
2021/11/06 03:08:42;;;;;;;17.67;7.85;;;;;;;2.14;76.30;100806.63;5014294;28;20049;-61
2021/11/06 03:11:15;;;;;;;14.82;8.25;;;;;;;2.12;76.12;100812.38;5014271;28;20050;-61
2021/11/06 03:13:47;;;;;;;15.95;7.47;;;;;;;1.95;76.34;100804.84;5014220;28;20042;-60
2021/11/06 03:16:17;;;;;;;16.63;7.93;;;;;;;1.94;76.48;100808.13;5014100;28;20120;-61
2021/11/06 03:18:46;;;;;;;12.80;7.68;;;;;;;1.94;77.11;100818.19;5014137;28;20476;-60
2021/11/06 03:21:18;;;;;;;17.52;8.18;;;;;;;1.84;76.54;100816.03;5014079;28;20129;-60
2021/11/06 03:23:51;;;;;;;14.68;7.47;;;;;;;1.92;76.62;100819.78;5014066;28;20136;-60
2021/11/06 03:26:24;;;;;;;11.93;7.18;;;;;;;1.92;76.63;100834.03;5013984;28;20100;-60
2021/11/06 03:28:53;;;;;;;17.52;7.72;;;;;;;1.84;76.33;100817.66;5013664;28;20042;-60
2021/11/06 03:31:26;;;;;;;13.93;6.85;;;;;;;1.67;76.30;100831.00;4975232;28;20043;-61
2021/11/06 03:33:58;;;;;;;17.45;8.18;;;;;;;1.69;77.08;100831.94;4975213;28;20046;-60
2021/11/06 03:36:28;;;;;;;12.15;6.25;;;;;;;1.76;76.79;100834.00;4974832;28;20077;-60
2021/11/06 03:39:02;;;;;;;18.13;8.00;;;;;;;1.70;76.73;100831.19;4974864;28;20051;-60
2021/11/06 03:41:34;;;;;;;15.45;7.60;;;;;;;1.68;76.75;100827.72;4974826;28;20077;-61
2021/11/06 03:44:04;;;;;;;14.27;7.20;;;;;;;1.77;77.83;100838.25;4975094;28;20475;-60
2021/11/06 03:46:37;;;;;;;10.65;5.97;;;;;;;1.75;77.79;100834.81;4974728;28;20101;-61
2021/11/06 03:49:10;;;;;;;13.85;7.40;;;;;;;1.81;78.15;100830.09;4975094;28;20050;-61
2021/11/06 03:51:42;;;;;;;15.95;8.30;;;;;;;1.88;77.13;100835.53;4974790;28;20135;-61
2021/11/06 03:54:14;;;;;;;16.00;8.07;;;;;;;2.07;77.26;100842.38;4975278;28;20063;-61
2021/11/06 03:56:43;;;;;;;14.40;7.60;;;;;;;2.25;78.02;100850.00;4978614;28;20085;-61
2021/11/06 03:59:12;;;;;;;14.23;7.90;;;;;;;2.27;77.14;100854.34;4978749;28;20508;-61
2021/11/06 04:01:42;;;;;;;12.30;7.07;;;;;;;2.14;76.54;100851.97;4978637;28;20057;-61
2021/11/06 04:04:14;;;;;;;11.25;7.05;;;;;;;2.13;77.42;100849.38;4978578;28;20500;-60
2021/11/06 04:06:47;;;;;;;13.73;7.22;;;;;;;1.98;76.50;100849.44;4978556;28;20046;-60
2021/11/06 04:09:20;;;;;;;12.90;7.68;;;;;;;1.76;76.48;100846.59;4978503;28;20046;-61
2021/11/06 04:11:50;;;;;;;14.10;7.68;;;;;;;1.71;77.12;100848.00;4978541;28;20105;-61
2021/11/06 04:14:19;;;;;;;12.80;7.00;;;;;;;1.84;76.89;100850.38;4978788;28;20047;-61
2021/11/06 04:16:51;;;;;;;12.73;6.78;;;;;;;1.86;77.49;100848.81;4978318;28;20070;-60
2021/11/06 04:19:21;;;;;;;14.55;6.75;;;;;;;1.90;77.38;100848.16;4978354;28;20055;-61
2021/11/06 04:21:54;;;;;;;9.15;4.93;;;;;;;1.91;76.98;100845.75;4978331;28;20043;-60
2021/11/06 04:24:25;;;;;;;12.02;6.97;;;;;;;1.90;77.02;100845.66;4978318;28;20042;-61
2021/11/06 04:27:00;;;;;;;17.98;7.32;;;;;;;1.83;76.56;100848.63;4978158;28;20070;-60
2021/11/06 04:29:30;;;;;;;12.13;7.20;;;;;;;1.85;77.16;100844.53;4987205;28;20112;-60
2021/11/06 04:32:00;;;;;;;13.73;6.97;;;;;;;1.71;76.54;100842.97;5017219;28;20077;-61
2021/11/06 04:34:30;;;;;;;13.88;7.00;;;;;;;1.52;76.51;100840.25;5017154;28;20069;-61
2021/11/06 04:36:59;;;;;;;9.20;5.57;;;;;;;1.36;76.88;100843.59;5016926;28;20049;-60
2021/11/06 04:39:30;;;;;;;14.40;7.00;;;;;;;1.46;77.39;100847.47;5016959;28;20041;-63
2021/11/06 04:42:01;;;;;;;12.88;7.55;;;;;;;1.51;76.69;100848.59;5016908;28;20503;-60
2021/11/06 04:44:30;;;;;;;;;;;;;;;1.61;76.87;100845.78;5017907;28;20030;-60
2021/11/06 04:47:02;;;;;;;14.70;7.43;;;;;;;1.80;76.99;100858.56;5017123;28;19921;-60
2021/11/06 04:49:31;;;;;;;15.32;7.65;;;;;;;1.79;77.47;100856.81;5016858;28;20786;-61
2021/11/06 04:52:04;;;;;;;15.70;8.27;;;;;;;1.77;77.13;100854.25;5017345;28;20042;-61
2021/11/06 04:54:35;;;;;;;15.63;7.78;;;;;;;1.69;77.08;100859.63;5016791;28;20077;-61
2021/11/06 04:57:08;;;;;;;14.25;8.05;;;;;;;1.64;77.15;100866.06;5016649;28;20053;-60
2021/11/06 04:59:37;;;;;;;15.65;7.97;;;;;;;1.74;77.53;100863.25;5016983;28;20372;-60
2021/11/06 05:02:08;;;;;;;14.90;7.78;;;;;;;1.78;76.65;100866.00;5016629;28;20107;-60
2021/11/06 05:04:38;;;;;;;12.85;7.20;;;;;;;1.76;76.36;100866.72;5016781;28;20137;-60
2021/11/06 05:07:07;;;;;;;15.35;7.93;;;;;;;1.75;76.73;100872.56;5016280;28;20128;-62
2021/11/06 05:09:38;;;;;;;16.98;8.60;;;;;;;1.75;77.05;100875.91;5016748;28;20376;-61
2021/11/06 05:12:12;;;;;;;16.27;7.68;;;;;;;1.74;76.29;100875.84;5016479;28;20061;-60
2021/11/06 05:14:41;;;;;;;14.13;7.30;;;;;;;1.62;76.59;100877.69;5016731;28;20485;-60
2021/11/06 05:17:10;;;;;;;13.30;7.10;;;;;;;1.54;76.66;100876.41;5016270;28;20053;-61
2021/11/06 05:19:40;;;;;;;18.23;8.18;;;;;;;1.53;77.20;100882.25;5016481;28;20050;-60
2021/11/06 05:22:15;;;;;;;17.83;7.93;;;;;;;1.58;76.38;100890.91;5016181;28;20061;-60
2021/11/06 05:24:46;;;;;;;12.95;7.30;;;;;;;1.64;76.71;100891.22;5016239;28;20042;-61
2021/11/06 05:27:15;;;;;;;14.02;6.90;;;;;;;1.62;76.12;100892.78;5016083;28;20045;-60
2021/11/06 05:29:56;;;;;;;13.75;7.68;;;;;;;1.53;76.62;100887.28;5015206;28;20112;-63
2021/11/06 05:32:26;;;;;;;17.95;8.70;;;;;;;1.51;76.69;100883.81;5016359;28;20049;-61
2021/11/06 05:34:55;;;;;;;14.75;7.05;;;;;;;1.62;76.73;100890.28;5015972;28;20514;-61
2021/11/06 05:37:24;;;;;;;13.55;6.95;;;;;;;1.43;76.18;100868.31;4998493;28;20554;-61
2021/11/06 05:39:55;;;;;;;13.60;7.47;;;;;;;1.64;77.04;100897.13;5015826;28;20049;-61
2021/11/06 05:42:24;;;;;;;15.32;8.23;;;;;;;1.59;76.22;100902.69;5015870;28;20089;-60
2021/11/06 05:44:54;;;;;;;14.23;7.50;;;;;;;1.50;76.50;100898.03;5016127;28;20046;-60
2021/11/06 05:47:26;;;;;;;15.10;7.72;;;;;;;1.42;77.15;100909.31;5015705;28;20582;-61
2021/11/06 05:49:58;;;;;;;15.02;7.88;;;;;;;1.45;76.24;100913.66;5016019;28;20061;-61
2021/11/06 05:52:35;;;;;;;14.55;7.70;;;;;;;1.46;76.85;100915.38;5015658;28;20052;-61
2021/11/06 05:55:08;;;;;;;13.73;7.38;;;;;;;1.55;76.96;100915.88;5016100;28;20053;-61
2021/11/06 05:57:41;;;;;;;14.80;8.13;;;;;;;1.42;76.35;100910.97;5015634;28;20050;-61
2021/11/06 06:00:13;;;;;;;15.70;7.75;;;;;;;1.34;76.44;100913.06;5015789;28;20141;-61
2021/11/06 06:02:46;;;;;;;14.73;7.78;;;;;;;1.35;76.70;100918.16;5015820;28;20084;-62
2021/11/06 06:05:19;;;;;;;14.18;8.13;;;;;;;1.35;76.59;100918.16;5015461;28;20054;-61
2021/11/06 06:07:48;;;;;;;14.93;7.70;;;;;;;1.50;76.78;100927.34;5015444;28;20117;-61
2021/11/06 06:10:18;;;;;;;16.60;8.70;;;;;;;1.62;77.22;100922.97;5015272;28;20069;-62
2021/11/06 06:12:50;;;;;;;15.40;8.68;;;;;;;1.47;76.82;100922.13;5015283;28;20065;-61
2021/11/06 06:15:23;;;;;;;15.63;8.27;;;;;;;1.43;76.62;100930.31;5015261;28;20513;-62
2021/11/06 06:17:56;;;;;;;20.05;9.90;;;;;;;1.60;77.04;100939.66;5014311;28;20057;-61
2021/11/06 06:20:28;;;;;;;22.88;10.02;;;;;;;1.81;77.67;100935.78;5015166;28;20057;-61
2021/11/06 06:22:57;;;;;;;20.17;10.80;;;;;;;1.92;77.06;100930.53;5015129;28;20046;-61
2021/11/06 06:25:28;;;;;;;19.42;9.65;;;;;;;2.11;76.70;100922.31;5015056;28;20042;-61
2021/11/06 06:28:02;;;;;;;18.42;10.18;;;;;;;2.16;76.64;100928.44;5014857;28;20052;-63
2021/11/06 06:30:33;;;;;;;17.77;10.32;;;;;;;2.33;77.15;100920.13;5014193;28;20415;-61
2021/11/06 06:33:08;;;;;;;19.55;10.23;;;;;;;2.56;77.45;100939.81;5015258;28;20053;-61
2021/11/06 06:35:38;;;;;;;20.13;10.88;;;;;;;2.73;76.61;100949.06;5014856;28;20052;-61
2021/11/06 06:38:11;;;;;;;18.55;9.90;;;;;;;3.04;76.81;100955.66;5015017;28;20050;-61
2021/11/06 06:40:42;;;;;;;19.50;9.77;;;;;;;3.18;76.40;100955.56;5014790;28;20072;-61
2021/11/06 06:43:11;;;;;;;18.73;10.25;;;;;;;3.39;76.58;100961.63;5015048;28;20049;-61
2021/11/06 06:45:40;;;;;;;15.55;8.52;;;;;;;3.34;76.24;100962.19;5014669;28;20056;-61
2021/11/06 06:48:10;;;;;;;15.27;8.57;;;;;;;3.24;76.02;100962.53;5014613;28;20046;-61
2021/11/06 06:50:39;;;;;;;16.48;8.52;;;;;;;3.04;76.45;100960.72;5014936;28;20093;-61
2021/11/06 06:53:09;;;;;;;17.75;9.07;;;;;;;2.96;76.55;100961.97;5013929;28;20044;-61
2021/11/06 06:55:43;;;;;;;21.63;9.55;;;;;;;3.05;76.58;100967.47;5014693;28;20443;-60
2021/11/06 06:58:13;;;;;;;15.30;8.95;;;;;;;3.44;76.98;100969.44;5014496;28;20061;-61
2021/11/06 07:00:41;;;;;;;;;;;;;;;3.69;76.53;100964.78;5015266;28;20412;-61
2021/11/06 07:03:13;;;;;;;12.40;6.63;;;;;;;3.81;75.71;100967.88;5015163;28;20245;-61
2021/11/06 07:05:47;;;;;;;16.48;8.88;;;;;;;3.91;75.31;100970.00;5014343;28;20046;-61
2021/11/06 07:08:17;;;;;;;15.50;9.38;;;;;;;3.95;75.73;100945.78;5014549;28;20454;-61
2021/11/06 07:10:50;;;;;;;20.95;11.68;;;;;;;4.14;75.65;100972.72;5014098;28;20034;-60
2021/11/06 07:13:21;;;;;;;19.48;9.85;;;;;;;4.25;75.25;100980.00;5014820;28;20045;-60
2021/11/06 07:15:53;;;;;;;19.05;9.88;;;;;;;4.38;75.18;100973.84;5014139;28;20061;-61
2021/11/06 07:18:23;;;;;;;17.50;10.50;;;;;;;4.55;75.19;100980.50;5014386;28;20057;-61
2021/11/06 07:20:58;;;;;;;21.52;10.20;;;;;;;4.70;74.57;100978.66;5014431;28;20049;-61
2021/11/06 07:23:30;;;;;;;16.85;8.07;;;;;;;4.83;74.23;100980.91;5014294;28;20042;-61
2021/11/06 07:26:04;;;;;;;19.27;9.65;;;;;;;4.98;73.91;100981.56;5014396;28;20403;-61
2021/11/06 07:28:34;;;;;;;16.45;8.93;;;;;;;5.09;73.39;100985.38;5013827;28;20058;-61
2021/11/06 07:31:04;;;;;;;12.48;7.05;;;;;;;5.06;73.24;100954.88;5013173;28;20108;-61
2021/11/06 07:33:33;;;;;;;12.57;6.95;;;;;;;5.27;73.00;100988.69;5014130;28;20092;-61
2021/11/06 07:36:02;;;;;;;12.88;6.72;;;;;;;5.20;72.90;100994.31;5013754;28;20108;-61
2021/11/06 07:38:31;;;;;;;12.80;7.55;;;;;;;5.02;73.25;100982.53;5021479;28;20396;-61
2021/11/06 07:41:01;;;;;;;12.25;6.90;;;;;;;5.06;73.17;100990.31;5033396;28;20128;-61
2021/11/06 07:43:33;;;;;;;12.00;6.20;;;;;;;4.96;72.90;100989.88;5033954;28;20472;-61
2021/11/06 07:46:03;;;;;;;12.90;7.28;;;;;;;4.95;73.18;100981.41;5033529;28;20495;-61
2021/11/06 07:48:32;;;;;;;13.73;7.45;;;;;;;5.14;73.21;100988.97;5033657;28;20136;-61
2021/11/06 07:51:02;;;;;;;11.98;7.15;;;;;;;5.28;73.05;100987.88;5033770;28;20384;-61
2021/11/06 07:53:34;;;;;;;14.07;7.75;;;;;;;5.49;73.14;100992.09;5033628;28;20050;-61
2021/11/06 07:56:06;;;;;;;11.00;6.85;;;;;;;5.62;72.91;100999.38;5033476;28;20133;-61
2021/11/06 07:58:37;;;;;;;14.55;8.18;;;;;;;5.68;72.80;101000.50;5033465;28;20057;-61
2021/11/06 08:01:07;;;;;;;12.30;7.03;;;;;;;5.91;72.82;101004.84;5033282;28;20072;-60
2021/11/06 08:03:36;;;;;;;14.18;8.05;;;;;;;5.98;72.61;100999.19;5033306;28;20041;-62
2021/11/06 08:06:06;;;;;;;12.18;7.82;;;;;;;6.19;72.45;101000.84;5033287;28;20037;-62
2021/11/06 08:08:35;;;;;;;;;;;;;;;6.38;72.37;100999.03;5033768;28;20499;-61
2021/11/06 08:11:04;;;;;;;12.00;7.55;;;;;;;6.52;71.20;100992.81;5033523;28;20321;-61
2021/11/06 08:13:34;;;;;;;11.18;5.80;;;;;;;6.55;71.16;100997.97;5033260;28;20079;-61
2021/11/06 08:16:08;;;;;;;14.18;8.13;;;;;;;6.46;71.00;101007.78;5033144;28;20158;-61
2021/11/06 08:18:37;;;;;;;12.90;7.15;;;;;;;6.31;71.09;100996.22;5033204;28;20149;-61
2021/11/06 08:21:10;;;;;;;7.88;4.43;;;;;;;6.29;71.39;100998.69;5033022;28;20045;-61
2021/11/06 08:23:39;;;;;;;10.07;5.90;;;;;;;6.26;70.87;100992.66;5033508;28;20514;-61
2021/11/06 08:26:08;;;;;;;8.18;4.53;;;;;;;6.29;70.78;100988.53;5033223;28;20550;-61
2021/11/06 08:28:40;;;;;;;13.07;6.50;;;;;;;6.30;70.89;100992.81;5032966;28;20498;-61
2021/11/06 08:31:11;;;;;;;12.68;6.50;;;;;;;6.54;70.61;100992.84;5032311;28;20450;-61
2021/11/06 08:33:44;;;;;;;14.70;7.88;;;;;;;6.87;71.05;100985.56;5033036;28;20506;-60
2021/11/06 08:36:17;;;;;;;10.50;6.55;;;;;;;6.97;70.42;100977.47;5033027;28;20099;-61
2021/11/06 08:38:46;;;;;;;14.73;7.32;;;;;;;7.14;69.82;100987.41;5032803;28;20477;-61
2021/11/06 08:41:16;;;;;;;11.80;6.35;;;;;;;7.26;69.51;100986.94;5034961;28;20041;-61
2021/11/06 08:43:45;;;;;;;11.20;6.28;;;;;;;7.20;69.80;100981.63;5036685;28;20072;-61
2021/11/06 08:46:16;;;;;;;13.63;6.10;;;;;;;7.33;69.42;100979.56;5036796;28;20113;-61
2021/11/06 08:48:48;;;;;;;11.70;5.97;;;;;;;7.46;69.45;100980.84;5036581;28;20502;-61
2021/11/06 08:51:18;;;;;;;10.20;5.88;;;;;;;7.42;68.78;100979.88;5036259;28;20049;-61
2021/11/06 08:53:49;;;;;;;9.88;6.13;;;;;;;7.47;69.60;100987.63;5036781;28;20045;-61
2021/11/06 08:56:24;;;;;;;10.68;6.05;;;;;;;7.59;68.88;100977.88;5036460;28;20046;-61
2021/11/06 08:59:00;;;;;;;10.20;5.85;;;;;;;7.82;68.30;100987.06;5036435;28;20045;-61
2021/11/06 09:01:33;;;;;;;10.15;5.75;;;;;;;8.15;68.34;100976.22;5036352;28;20051;-61
2021/11/06 09:04:03;;;;;;;10.85;5.97;;;;;;;8.33;68.44;100976.78;5036640;28;20124;-61
2021/11/06 09:06:33;;;;;;;9.48;6.32;;;;;;;8.52;68.12;100973.94;5036251;28;20120;-61
2021/11/06 09:09:08;;;;;;;8.38;4.97;;;;;;;8.53;67.41;100981.63;5036288;28;20077;-61
2021/11/06 09:11:39;;;;;;;11.57;6.10;;;;;;;8.72;66.95;100993.19;5036359;28;20140;-61
2021/11/06 09:14:09;;;;;;;9.25;5.70;;;;;;;8.90;66.82;100987.75;5036755;28;20044;-61
2021/11/06 09:16:40;;;;;;;10.70;5.88;;;;;;;9.01;66.48;100996.50;5035935;28;20045;-61
2021/11/06 09:19:09;;;;;;;10.63;6.45;;;;;;;9.20;66.35;100999.59;5036049;28;20557;-61
2021/11/06 09:21:39;;;;;;;11.80;5.88;;;;;;;9.37;65.57;100997.47;5036211;28;20049;-60
2021/11/06 09:24:09;;;;;;;10.75;6.57;;;;;;;9.26;65.57;100992.09;5035900;28;20049;-60
2021/11/06 09:26:43;;;;;;;12.57;6.65;;;;;;;9.29;66.02;100994.72;5036235;28;20045;-60
2021/11/06 09:29:16;;;;;;;12.38;6.88;;;;;;;9.51;65.25;101001.22;5035608;28;20060;-62
2021/11/06 09:31:47;;;;;;;12.10;6.72;;;;;;;9.71;64.97;100994.06;5035611;28;20132;-60
2021/11/06 09:34:17;;;;;;;10.85;6.50;;;;;;;9.80;64.66;100994.28;5035774;28;20077;-60
2021/11/06 09:36:46;;;;;;;12.00;6.70;;;;;;;10.18;64.24;100984.97;5035851;28;20406;-61
2021/11/06 09:39:19;;;;;;;11.55;6.30;;;;;;;10.45;63.89;100994.06;5035715;28;20061;-61
2021/11/06 09:41:49;;;;;;;10.07;6.45;;;;;;;10.49;62.87;100985.66;5035525;28;20076;-60
2021/11/06 09:44:21;;;;;;;10.20;6.72;;;;;;;10.67;63.06;101001.34;5035911;28;20072;-61
2021/11/06 09:46:58;;;;;;;13.07;7.28;;;;;;;10.82;62.75;100990.56;5035825;28;20103;-61
2021/11/06 09:49:27;;;;;;;10.50;5.53;;;;;;;11.00;62.49;100984.94;5035733;28;20433;-61
2021/11/06 09:51:57;;;;;;;7.70;5.60;;;;;;;11.09;61.54;100985.09;5034240;28;20057;-61
2021/11/06 09:54:31;;;;;;;7.35;4.97;;;;;;;11.24;61.01;100985.38;5035381;28;20049;-60
2021/11/06 09:57:04;;;;;;;8.10;5.00;;;;;;;11.29;60.71;100994.84;5035756;28;20075;-60
2021/11/06 09:59:36;;;;;;;7.28;5.05;;;;;;;11.14;60.19;100993.72;5035844;28;20050;-60
2021/11/06 10:02:09;;;;;;;8.70;5.50;;;;;;;10.96;60.50;100999.38;5035415;28;20069;-60
2021/11/06 10:04:42;;;;;;;8.15;4.70;;;;;;;11.19;59.85;100986.97;5035254;28;20044;-61
2021/11/06 10:07:20;;;;;;;7.90;4.80;;;;;;;11.25;60.28;100976.88;5035187;28;20041;-61
2021/11/06 10:10:01;;;;;;;8.45;4.82;;;;;;;11.64;59.39;100974.97;5035154;28;20128;-61
2021/11/06 10:12:49;;;;;;;7.80;4.30;;;;;;;11.58;59.07;100969.78;5035213;28;20124;-61
2021/11/06 10:15:21;;;;;;;7.83;5.30;;;;;;;11.64;59.11;100974.97;5034988;28;20049;-61
2021/11/06 10:17:55;;;;;;;8.35;4.82;;;;;;;11.50;59.56;100967.91;5035019;28;20049;-61
2021/11/06 10:20:28;;;;;;;9.20;4.65;;;;;;;11.47;59.39;100968.72;5035194;28;20049;-60
2021/11/06 10:23:02;;;;;;;8.30;5.30;;;;;;;11.73;59.43;100962.38;5034888;28;20100;-61
2021/11/06 10:25:33;;;;;;;10.60;6.18;;;;;;;12.23;59.13;100955.41;5034807;28;20132;-61
2021/11/06 10:28:04;;;;;;;9.00;5.10;;;;;;;12.32;58.70;100934.16;5035086;28;20398;-61
2021/11/06 10:30:36;;;;;;;8.80;5.43;;;;;;;12.26;58.63;100954.59;5033910;28;20063;-61
2021/11/06 10:33:16;;;;;;;7.15;4.72;;;;;;;12.28;58.76;100937.53;5034703;28;20136;-60
2021/11/06 10:35:51;;;;;;;7.60;5.43;;;;;;;12.63;58.47;100941.38;5034981;28;20407;-61
2021/11/06 10:38:28;;;;;;;8.10;5.10;;;;;;;13.00;58.09;100938.38;5034590;28;20084;-61
2021/11/06 10:41:03;;;;;;;8.40;5.20;;;;;;;13.04;58.04;100927.28;5034675;28;20164;-61
2021/11/06 10:43:37;;;;;;;9.73;5.28;;;;;;;13.22;58.41;100924.91;5034505;28;20060;-60
2021/11/06 10:46:15;;;;;;;8.02;6.00;;;;;;;13.38;57.97;100921.63;5034701;28;20095;-61
2021/11/06 10:48:48;;;;;;;10.43;6.15;;;;;;;13.52;57.29;100923.44;5034464;28;20566;-61
2021/11/06 10:51:24;;;;;;;8.35;4.80;;;;;;;13.27;57.71;100918.09;5034367;28;20045;-61
2021/11/06 10:53:55;;;;;;;8.63;4.97;;;;;;;13.23;57.69;100895.88;5034628;28;20124;-60
2021/11/06 10:56:34;;;;;;;8.52;5.07;;;;;;;13.69;57.01;100912.44;5034291;28;20053;-61
2021/11/06 10:59:11;;;;;;;8.68;5.45;;;;;;;13.65;56.37;100909.84;5034504;28;20550;-61
2021/11/06 11:01:45;;;;;;;6.95;4.75;;;;;;;13.79;56.63;100905.66;5034460;28;20462;-61
2021/11/06 11:04:19;;;;;;;7.70;5.15;;;;;;;13.86;55.95;100904.84;5033771;28;20076;-61
2021/11/06 11:06:53;;;;;;;7.43;4.43;;;;;;;13.76;56.02;100896.25;5033976;28;20121;-61
2021/11/06 11:09:28;;;;;;;7.45;4.68;;;;;;;13.85;56.16;100892.84;5034115;28;20045;-60
2021/11/06 11:12:02;;;;;;;6.82;4.13;;;;;;;13.70;55.92;100885.09;5033956;28;20045;-61
2021/11/06 11:14:34;;;;;;;7.88;5.30;;;;;;;13.62;55.07;100884.16;5034187;28;20042;-61
2021/11/06 11:17:07;;;;;;;8.00;4.78;;;;;;;13.72;54.94;100880.81;5033934;28;20053;-61
2021/11/06 11:19:44;;;;;;;8.57;4.95;;;;;;;13.95;55.08;100874.94;5033815;28;20159;-61
2021/11/06 11:22:23;;;;;;;7.00;4.38;;;;;;;13.94;54.81;100878.34;5033748;28;20045;-60
2021/11/06 11:24:55;;;;;;;;;;;;;;;14.19;54.87;100883.59;5034397;28;20050;-61
2021/11/06 11:27:48;;;;;;;7.15;4.25;;;;;;;14.23;54.20;100865.63;5033984;28;20334;-61
2021/11/06 11:30:18;;;;;;;8.35;4.93;;;;;;;14.13;54.46;100866.47;5032953;28;20450;-61
2021/11/06 11:32:50;;;;;;;6.88;3.88;;;;;;;14.33;54.80;100862.28;5033642;28;20145;-61
2021/11/06 11:35:21;;;;;;;6.25;3.92;;;;;;;14.50;55.08;100855.47;5033707;28;20049;-61
2021/11/06 11:37:56;;;;;;;7.95;4.95;;;;;;;14.57;54.81;100849.50;5033543;28;20041;-60
2021/11/06 11:40:29;;;;;;;6.30;4.07;;;;;;;14.36;54.13;100846.91;5033659;28;20053;-61
2021/11/06 11:43:15;;;;;;;7.15;4.40;;;;;;;14.21;54.59;100839.09;5033519;28;20073;-60
2021/11/06 11:45:54;;;;;;;6.90;4.50;;;;;;;14.07;54.46;100838.19;5033844;28;20471;-60
2021/11/06 11:48:28;;;;;;;5.85;4.35;;;;;;;14.17;53.93;100837.38;5033555;28;20042;-60